Time;durP1;ratioP1;P1;durP2;ratioP2;P2;SDS_P1;SDS_P2;PMS_P1;PMS_P2;Temp;Humidity;BMP_temperature;BMP_pressure;BME280_temperature;BME280_humidity;BME280_pressure;Samples;Min_cycle;Max_cycle;Signal;HPM_P1;HPM_P2
2022/06/12 00:03:33;;;;;;;10.57;3.30;;;;;;;12.15;100.00;102163.72;10298752;28;20107;-81
2022/06/12 00:08:34;;;;;;;14.65;3.92;;;;;;;11.98;100.00;102146.13;10282298;28;20042;-87
2022/06/12 00:13:42;;;;;;;19.08;4.05;;;;;;;11.90;100.00;102139.84;10267587;28;20065;-88
2022/06/12 00:18:43;;;;;;;9.93;3.33;;;;;;;12.00;100.00;102155.03;10288574;28;20039;-89
2022/06/12 00:23:46;;;;;;;10.80;3.85;;;;;;;11.89;100.00;102157.50;10306289;28;20038;-89
2022/06/12 00:28:47;;;;;;;15.60;3.47;;;;;;;11.84;100.00;102151.78;10293073;28;20043;-87
2022/06/12 00:33:48;;;;;;;8.18;3.13;;;;;;;11.79;100.00;102159.09;10309032;28;20066;-88
2022/06/12 00:38:48;;;;;;;9.98;3.42;;;;;;;11.75;100.00;102161.44;10293368;28;20444;-90
2022/06/12 00:43:49;;;;;;;14.52;3.38;;;;;;;11.65;100.00;102152.88;10284305;28;20073;-89
2022/06/12 00:48:49;;;;;;;10.40;2.88;;;;;;;11.56;100.00;102148.75;10306235;28;20039;-87
2022/06/12 00:53:55;;;;;;;11.60;4.22;;;;;;;11.52;100.00;102149.19;10262764;28;20548;-89
2022/06/12 00:58:57;;;;;;;15.93;3.40;;;;;;;11.45;100.00;102153.09;10303799;28;20372;-88
2022/06/12 01:09:22;;;;;;;16.35;4.55;;;;;;;11.33;100.00;102150.28;10304638;28;20055;-88
2022/06/12 01:14:26;;;;;;;13.63;3.58;;;;;;;11.25;100.00;102143.13;10302627;28;20082;-89
2022/06/12 01:19:34;;;;;;;14.30;3.75;;;;;;;11.18;100.00;102138.75;10305595;28;20035;-89
2022/06/12 01:24:47;;;;;;;12.13;4.15;;;;;;;11.19;100.00;102141.28;10257787;28;20035;-89
2022/06/12 01:30:02;;;;;;;24.33;4.90;;;;;;;11.19;100.00;102140.44;10291387;28;20114;-88
2022/06/12 01:35:13;;;;;;;13.68;4.43;;;;;;;11.24;100.00;102140.59;10306122;28;20082;-89
2022/06/12 01:40:53;;;;;;;20.63;4.93;;;;;;;11.22;100.00;102131.72;10303997;28;20121;-89
2022/06/12 01:46:38;;;;;;;18.83;4.13;;;;;;;11.18;100.00;102119.44;10284726;28;20073;-89
2022/06/12 01:52:06;;;;;;;16.85;5.07;;;;;;;11.11;100.00;102108.50;10231934;28;20099;-88
2022/06/12 01:57:20;;;;;;;14.30;5.20;;;;;;;11.03;100.00;102098.59;10289468;28;20047;-89
2022/06/12 02:02:34;;;;;;;11.27;5.10;;;;;;;11.08;100.00;102115.31;10290025;28;20344;-89
2022/06/12 02:07:41;;;;;;;16.10;5.22;;;;;;;11.03;100.00;102117.91;10302988;28;20054;-90
2022/06/12 02:18:06;;;;;;;17.25;4.93;;;;;;;10.98;100.00;102112.25;10290235;28;20031;-88
2022/06/12 02:23:28;;;;;;;18.92;5.03;;;;;;;10.91;100.00;102092.16;10302216;28;20049;-90
2022/06/12 02:28:34;;;;;;;19.08;5.63;;;;;;;10.98;100.00;102108.66;10268115;28;20042;-89
2022/06/12 02:33:36;;;;;;;15.63;4.83;;;;;;;10.93;100.00;102103.78;10277709;28;20098;-89
2022/06/12 02:38:43;;;;;;;14.10;4.97;;;;;;;10.86;100.00;102095.59;10292556;28;20078;-91
2022/06/12 02:43:44;;;;;;;;;;;;;;;10.88;100.00;102104.47;10291943;28;20050;-90
2022/06/12 02:48:44;;;;;;;17.13;5.22;;;;;;;10.84;100.00;102102.41;10308710;28;19929;-90
2022/06/12 02:53:58;;;;;;;11.15;4.10;;;;;;;10.79;100.00;102104.97;10290523;28;20050;-90
2022/06/12 02:59:08;;;;;;;11.55;4.50;;;;;;;10.72;100.00;102088.53;10304944;28;20047;-88
2022/06/12 03:04:15;;;;;;;16.40;4.28;;;;;;;10.77;100.00;102090.59;10318584;28;20097;-88
2022/06/12 03:09:16;;;;;;;;;;;;;;;10.79;100.00;102094.84;10300480;28;20039;-88
2022/06/12 03:14:19;;;;;;;18.73;4.28;;;;;;;10.78;100.00;102093.13;10299160;28;19985;-86
2022/06/12 03:19:23;;;;;;;12.05;3.85;;;;;;;10.66;100.00;102083.91;10300994;28;20126;-89
2022/06/12 03:24:36;;;;;;;11.27;3.70;;;;;;;10.81;100.00;102106.47;10301143;28;20034;-88
2022/06/12 03:29:58;;;;;;;11.45;4.10;;;;;;;10.85;100.00;102104.09;10303498;28;20130;-88
2022/06/12 03:35:08;;;;;;;8.25;3.33;;;;;;;10.85;100.00;102104.09;10304979;28;20043;-87
2022/06/12 03:40:20;;;;;;;9.90;3.35;;;;;;;10.79;100.00;102078.31;10284578;28;20489;-90
2022/06/12 03:45:33;;;;;;;9.75;3.83;;;;;;;10.98;100.00;102098.47;10269239;28;20039;-88
2022/06/12 03:51:18;;;;;;;11.68;3.13;;;;;;;11.09;100.00;102099.63;10299114;28;20046;-88
2022/06/12 04:02:27;;;;;;;10.70;3.33;;;;;;;11.21;100.00;102091.44;10299295;28;20070;-88
2022/06/12 04:07:28;;;;;;;10.85;3.33;;;;;;;11.25;100.00;102076.13;10269523;28;20042;-87
2022/06/12 04:12:32;;;;;;;10.30;2.70;;;;;;;11.33;100.00;102070.31;10284205;28;20046;-88
2022/06/12 04:17:32;;;;;;;14.75;3.42;;;;;;;11.53;100.00;102083.84;10283111;28;20031;-88
2022/06/12 04:22:54;;;;;;;10.73;3.17;;;;;;;11.64;100.00;102087.75;10259985;28;20118;-87
2022/06/12 04:27:55;;;;;;;11.02;3.25;;;;;;;11.63;100.00;102072.28;10296112;28;20050;-88
2022/06/12 04:33:09;;;;;;;13.65;3.10;;;;;;;11.82;100.00;102086.88;10281607;28;20039;-88
2022/06/12 04:38:09;;;;;;;8.27;2.90;;;;;;;11.93;100.00;102086.13;10279604;28;20031;-88
2022/06/12 04:43:10;;;;;;;8.32;2.95;;;;;;;12.02;100.00;102089.38;10292925;28;20039;-88
2022/06/12 04:48:13;;;;;;;11.15;2.72;;;;;;;12.11;100.00;102096.25;10293877;28;20039;-88
2022/06/12 04:53:13;;;;;;;9.00;3.30;;;;;;;12.18;100.00;102097.00;10266834;28;20192;-88
2022/06/12 04:58:14;;;;;;;17.05;3.97;;;;;;;12.26;100.00;102091.16;10261702;28;20035;-88
2022/06/12 05:03:14;;;;;;;11.10;3.05;;;;;;;12.34;100.00;102094.63;10296544;28;20515;-88
2022/06/12 05:08:15;;;;;;;8.27;3.05;;;;;;;12.38;100.00;102084.81;10285746;28;20034;-88
2022/06/12 05:13:16;;;;;;;12.43;3.13;;;;;;;12.55;100.00;102091.34;10284986;28;20073;-88
2022/06/12 05:18:16;;;;;;;15.38;4.43;;;;;;;12.74;100.00;102091.25;10284586;28;20039;-89
2022/06/12 05:23:17;;;;;;;15.02;3.08;;;;;;;12.83;100.00;102071.28;10267525;28;20042;-87
2022/06/12 05:28:18;;;;;;;10.75;2.90;;;;;;;13.08;100.00;102095.06;10276999;28;20403;-88
2022/06/12 05:33:18;;;;;;;12.75;3.25;;;;;;;13.27;100.00;102093.00;10262560;28;20047;-88
2022/06/12 05:38:19;;;;;;;11.82;2.97;;;;;;;13.45;100.00;102092.88;10301277;28;20043;-88
2022/06/12 05:43:19;;;;;;;11.70;2.63;;;;;;;13.65;100.00;102095.25;10301168;28;20050;-88
2022/06/12 05:48:21;;;;;;;7.10;2.50;;;;;;;13.84;100.00;102087.59;10300067;28;20035;-88
2022/06/12 05:53:23;;;;;;;9.32;2.78;;;;;;;14.04;100.00;102083.56;10283319;28;20039;-88
2022/06/12 05:58:25;;;;;;;10.23;3.08;;;;;;;14.26;100.00;102089.19;10283445;28;20035;-88
2022/06/12 06:03:25;;;;;;;10.63;2.75;;;;;;;14.59;100.00;102099.50;10267998;28;20046;-88
2022/06/12 06:08:26;;;;;;;9.95;3.25;;;;;;;14.89;100.00;102082.53;10299883;28;20433;-86
2022/06/12 06:13:26;;;;;;;16.15;3.00;;;;;;;15.07;100.00;102089.75;10281623;28;20039;-89
2022/06/12 06:18:27;;;;;;;12.50;4.22;;;;;;;15.42;100.00;102102.44;10297939;28;20039;-89
2022/06/12 06:23:27;;;;;;;14.48;3.03;;;;;;;15.73;100.00;102092.59;10297916;28;20035;-89
2022/06/12 06:28:28;;;;;;;14.18;3.50;;;;;;;16.05;100.00;102100.16;10298992;28;20042;-88
2022/06/12 06:33:28;;;;;;;15.95;3.85;;;;;;;15.83;100.00;102080.75;10300321;28;20058;-88
2022/06/12 06:38:29;;;;;;;10.30;3.25;;;;;;;16.19;100.00;102100.59;10282078;28;20043;-78
2022/06/12 06:43:30;;;;;;;11.32;3.47;;;;;;;16.46;100.00;102100.56;10298494;28;20467;-89
2022/06/12 06:48:31;;;;;;;21.70;4.18;;;;;;;16.67;100.00;102111.88;10282004;28;20034;-89
2022/06/12 06:53:32;;;;;;;15.07;3.85;;;;;;;16.75;100.00;102112.22;10279369;28;20043;-87
2022/06/12 06:58:32;;;;;;;16.15;3.88;;;;;;;17.08;100.00;102113.03;10298873;28;20031;-88
2022/06/12 07:03:33;;;;;;;15.25;4.30;;;;;;;17.35;100.00;102112.91;10297667;28;20139;-89
2022/06/12 07:08:33;;;;;;;17.27;4.15;;;;;;;17.49;100.00;102102.16;10256807;28;20035;-89
2022/06/12 07:13:34;;;;;;;19.83;4.72;;;;;;;17.63;100.00;102119.19;10275072;28;20506;-87
2022/06/12 07:18:34;;;;;;;19.45;4.60;;;;;;;17.84;100.00;102111.78;10276612;28;20039;-88
2022/06/12 07:23:35;;;;;;;17.73;3.88;;;;;;;18.09;100.00;102104.63;10275181;28;20046;-87
2022/06/12 07:28:36;;;;;;;20.08;4.68;;;;;;;18.25;100.00;102094.31;10272956;28;20042;-81
2022/06/12 07:33:39;;;;;;;16.85;3.63;;;;;;;18.48;100.00;102092.94;10256617;28;20062;-87
2022/06/12 07:38:40;;;;;;;22.85;3.45;;;;;;;18.59;100.00;102103.00;10256581;28;20035;-88
2022/06/12 07:43:41;;;;;;;12.90;3.78;;;;;;;18.75;100.00;102096.31;10244185;28;20043;-88
2022/06/12 07:48:42;;;;;;;12.95;2.33;;;;;;;18.99;100.00;102090.16;10275854;28;20082;-87
2022/06/12 07:53:43;;;;;;;14.52;3.85;;;;;;;19.21;100.00;102089.00;10274895;28;20039;-86
2022/06/12 07:58:45;;;;;;;19.60;4.22;;;;;;;19.31;100.00;102097.34;10295987;28;20495;-78
2022/06/12 08:03:46;;;;;;;13.07;2.92;;;;;;;19.46;100.00;102094.50;10267097;28;20051;-89
2022/06/12 08:08:46;;;;;;;13.45;3.55;;;;;;;19.68;100.00;102096.09;10290351;28;20043;-88
2022/06/12 08:13:47;;;;;;;10.70;4.35;;;;;;;19.75;100.00;102102.25;10278321;28;20035;-87
2022/06/12 08:18:47;;;;;;;17.30;3.47;;;;;;;19.79;100.00;102080.97;10286158;28;20039;-87
2022/06/12 08:23:50;;;;;;;15.68;3.17;;;;;;;20.01;100.00;102083.38;10291276;28;20058;-87
2022/06/12 08:28:54;;;;;;;15.13;3.05;;;;;;;20.19;100.00;102090.22;10275983;28;20070;-87
2022/06/12 08:33:57;;;;;;;13.43;3.53;;;;;;;20.33;100.00;102102.44;10221948;28;20039;-87
2022/06/12 08:38:57;;;;;;;12.98;2.83;;;;;;;20.44;100.00;102093.97;10274023;28;20039;-87
2022/06/12 08:44:01;;;;;;;8.38;2.95;;;;;;;20.07;100.00;102095.34;10282996;28;20030;-87
2022/06/12 08:49:33;;;;;;;10.05;2.65;;;;;;;20.33;100.00;102085.66;10284675;28;20043;-86
2022/06/12 08:54:48;;;;;;;8.40;2.53;;;;;;;20.72;97.43;102065.22;10286211;28;20039;-87
2022/06/12 08:59:56;;;;;;;10.18;2.33;;;;;;;21.06;97.72;102069.09;10276409;28;20054;-86
2022/06/12 09:04:58;;;;;;;14.32;3.33;;;;;;;21.37;93.34;102049.97;10245910;28;20051;-86
2022/06/12 09:10:03;;;;;;;13.82;3.00;;;;;;;21.52;96.46;102049.81;10252845;28;20043;-87
2022/06/12 09:15:07;;;;;;;9.65;2.72;;;;;;;21.64;97.09;102062.53;10284805;28;20102;-88
2022/06/12 09:20:23;;;;;;;13.80;2.67;;;;;;;21.71;92.47;102037.78;10304562;28;20118;-88
2022/06/12 09:25:27;;;;;;;17.17;2.63;;;;;;;21.79;91.56;102048.34;10304519;28;20052;-88
2022/06/12 09:30:37;;;;;;;12.35;2.20;;;;;;;21.21;93.02;102042.88;10304641;28;20046;-89
2022/06/12 09:35:59;;;;;;;11.40;2.83;;;;;;;20.87;93.65;102049.41;10297680;28;20035;-88
2022/06/12 09:41:15;;;;;;;10.57;2.25;;;;;;;20.79;95.13;102038.84;10306283;28;20047;-89
2022/06/12 09:46:25;;;;;;;7.28;2.10;;;;;;;21.30;91.88;102027.91;10302092;28;20057;-88
2022/06/12 09:51:41;;;;;;;10.75;2.85;;;;;;;22.04;91.67;102015.44;10299847;28;20102;-88
2022/06/12 09:57:23;;;;;;;10.50;2.17;;;;;;;22.81;87.31;102000.94;10300137;28;20059;-89
2022/06/12 10:02:45;;;;;;;13.05;3.22;;;;;;;22.24;85.36;101992.72;10299735;28;20106;-89
2022/06/12 10:07:54;;;;;;;11.15;2.67;;;;;;;22.15;86.95;101994.50;10313066;28;24830;-89
2022/06/12 10:12:58;;;;;;;8.15;2.13;;;;;;;22.18;81.28;101977.06;10282921;28;20059;-89
2022/06/12 10:18:07;;;;;;;8.40;2.17;;;;;;;22.97;77.63;101956.53;10281588;28;20043;-89
2022/06/12 10:23:08;;;;;;;7.65;2.20;;;;;;;22.85;77.78;101956.22;10281575;28;20042;-89
2022/06/12 10:28:14;;;;;;;6.85;1.95;;;;;;;22.26;78.96;101968.00;10299493;28;20042;-89
2022/06/12 10:33:23;;;;;;;8.07;2.25;;;;;;;21.65;84.25;101974.53;10297858;28;20070;-89
2022/06/12 10:38:26;;;;;;;8.88;2.30;;;;;;;21.35;86.96;101982.19;10297869;28;20042;-88
2022/06/12 10:43:35;;;;;;;11.60;2.50;;;;;;;20.92;84.15;101973.81;10297534;28;20035;-89
2022/06/12 10:48:35;;;;;;;7.30;2.10;;;;;;;19.81;85.97;101919.47;10296611;28;20053;-88
2022/06/12 10:53:36;;;;;;;9.65;2.38;;;;;;;20.24;85.50;101974.75;10278625;28;20057;-87
2022/06/12 10:59:10;;;;;;;5.95;2.20;;;;;;;21.27;79.52;101958.50;10280206;28;20087;-86
2022/06/12 11:04:40;;;;;;;4.50;1.23;;;;;;;22.09;74.54;101951.69;10296769;28;20039;-88
2022/06/12 11:10:02;;;;;;;5.78;1.40;;;;;;;22.70;71.25;101937.72;10282346;28;20063;-88
2022/06/12 11:15:07;;;;;;;3.75;1.13;;;;;;;22.77;68.61;101936.13;10297515;28;20176;-87
2022/06/12 11:20:25;;;;;;;5.90;1.30;;;;;;;22.89;70.28;101940.41;10296581;28;20047;-87
2022/06/12 11:25:26;;;;;;;5.90;1.80;;;;;;;22.43;67.04;101938.50;10280173;28;20042;-87
2022/06/12 11:30:39;;;;;;;3.90;1.13;;;;;;;22.83;67.41;101944.47;10294925;28;20383;-87
2022/06/12 11:35:49;;;;;;;3.47;1.08;;;;;;;22.42;64.69;101936.84;10296609;28;20407;-87
2022/06/12 11:40:53;;;;;;;4.97;1.30;;;;;;;23.09;64.84;101933.53;10272610;28;20039;-90
2022/06/12 11:46:19;;;;;;;6.47;1.27;;;;;;;24.02;62.18;101935.91;10294881;28;20051;-87
2022/06/12 11:51:37;;;;;;;8.23;1.83;;;;;;;24.67;62.19;101940.09;10282390;28;20043;-88
2022/06/12 11:56:49;;;;;;;6.18;1.20;;;;;;;24.00;60.60;101928.94;10287303;28;20039;-89
2022/06/12 12:02:16;;;;;;;5.22;1.55;;;;;;;24.48;59.61;101916.97;10292866;28;20054;-89
2022/06/12 12:07:35;;;;;;;6.38;1.35;;;;;;;23.95;58.33;101927.09;10260110;28;20043;-89
2022/06/12 12:12:41;;;;;;;5.72;1.40;;;;;;;23.66;58.13;101931.13;10278017;28;20137;-88
2022/06/12 12:17:42;;;;;;;5.93;1.47;;;;;;;22.28;61.04;101934.84;10269248;28;20458;-89
2022/06/12 12:22:52;;;;;;;3.72;1.20;;;;;;;23.72;61.58;101943.91;10270042;28;20047;-89
2022/06/12 12:27:54;;;;;;;8.40;1.75;;;;;;;24.00;60.32;101940.19;10285016;28;20047;-89
2022/06/12 12:32:56;;;;;;;6.05;1.58;;;;;;;23.66;61.25;101953.63;10267436;28;20102;-89
2022/06/12 12:43:16;;;;;;;5.30;1.63;;;;;;;23.54;60.12;101957.00;10301787;28;20051;-89
2022/06/12 12:48:16;;;;;;;6.85;2.10;;;;;;;23.11;61.70;101960.19;10299502;28;20359;-89
2022/06/12 12:53:28;;;;;;;5.13;1.67;;;;;;;22.62;62.33;101961.72;10302873;28;20038;-89
2022/06/12 12:58:29;;;;;;;4.47;1.48;;;;;;;23.82;58.51;101934.44;10301627;28;20157;-89
2022/06/12 13:03:38;;;;;;;9.30;1.63;;;;;;;23.87;61.59;101948.34;10295545;28;20102;-88
2022/06/12 13:08:44;;;;;;;4.93;1.50;;;;;;;23.68;59.37;101940.06;10269708;28;20051;-89
2022/06/12 13:13:53;;;;;;;;;;;;;;;23.97;58.75;101938.84;10266145;28;20062;-89
2022/06/12 13:19:13;;;;;;;7.00;2.90;;;;;;;25.13;61.05;101944.38;10301171;28;19929;-89
2022/06/12 13:24:16;;;;;;;6.63;1.45;;;;;;;25.50;56.11;101930.06;10299846;28;20550;-92
2022/06/12 13:29:20;;;;;;;5.43;1.30;;;;;;;26.23;55.75;101935.00;10287424;28;20047;-86
2022/06/12 13:34:21;;;;;;;4.93;1.20;;;;;;;25.96;53.81;101926.59;10296106;28;20053;-89
2022/06/12 13:39:32;;;;;;;4.65;1.38;;;;;;;25.52;54.26;101928.56;10283513;28;20055;-89
2022/06/12 13:44:36;;;;;;;5.00;1.27;;;;;;;25.29;52.62;101916.59;10281545;28;20043;-90
2022/06/12 13:49:56;;;;;;;5.57;1.40;;;;;;;24.18;56.22;101933.53;10299970;28;20096;-89
2022/06/12 13:54:57;;;;;;;6.95;2.22;;;;;;;25.10;52.37;101901.97;10258935;28;20058;-89
2022/06/12 13:59:58;;;;;;;3.95;1.10;;;;;;;24.30;56.41;101910.44;10261261;28;20043;-91
2022/06/12 14:05:01;;;;;;;6.63;1.80;;;;;;;24.82;54.66;101870.41;10258683;28;20054;-90
2022/06/12 14:10:09;;;;;;;3.88;1.05;;;;;;;25.73;52.55;101888.41;10298162;28;20047;-90
2022/06/12 14:15:48;;;;;;;7.50;1.58;;;;;;;26.23;51.10;101885.03;10268631;28;20047;-89
2022/06/12 14:21:02;;;;;;;4.88;1.20;;;;;;;26.05;50.30;101870.16;10237647;28;20080;-90
2022/06/12 14:26:33;;;;;;;7.40;1.30;;;;;;;26.68;48.84;101883.72;10273751;28;20109;-89
2022/06/12 14:31:34;;;;;;;5.05;1.55;;;;;;;26.67;49.64;101882.06;10300200;28;20043;-90
2022/06/12 14:36:50;;;;;;;3.20;1.40;;;;;;;25.66;52.55;101908.66;10298720;28;20046;-90
2022/06/12 14:41:53;;;;;;;6.38;1.50;;;;;;;26.04;53.68;101910.81;10297211;28;20045;-90
2022/06/12 14:46:54;;;;;;;7.00;2.53;;;;;;;26.22;49.43;101859.97;10296035;28;20046;-90
2022/06/12 14:51:54;;;;;;;5.40;1.17;;;;;;;26.41;49.86;101899.09;10294813;28;21610;-88
2022/06/12 14:56:55;;;;;;;5.60;1.75;;;;;;;25.36;54.90;101919.78;10296628;28;20046;-91
2022/06/12 15:01:56;;;;;;;7.15;1.60;;;;;;;25.44;51.31;101898.38;10298339;28;20081;-90
2022/06/12 15:06:57;;;;;;;9.20;2.10;;;;;;;24.40;53.75;101904.53;10296313;28;20042;-89
2022/06/12 15:11:57;;;;;;;4.80;1.50;;;;;;;22.67;57.38;101911.06;10298664;28;20049;-89
2022/06/12 15:16:58;;;;;;;7.60;2.33;;;;;;;22.08;59.71;101938.81;10294272;28;20031;-90
2022/06/12 15:21:59;;;;;;;5.57;2.03;;;;;;;21.82;61.75;101941.19;10294913;28;20058;-90
2022/06/12 15:32:27;;;;;;;10.30;3.08;;;;;;;21.02;62.08;101912.06;10298031;28;20063;-93
2022/06/12 15:37:27;;;;;;;10.40;2.90;;;;;;;20.70;66.63;101943.53;10266553;28;20330;-89
2022/06/12 15:42:29;;;;;;;6.40;2.00;;;;;;;20.66;68.33;101954.47;10286241;28;20038;-91
2022/06/12 15:47:29;;;;;;;6.05;2.05;;;;;;;20.55;67.76;101936.13;10256326;28;20042;-91
2022/06/12 15:52:31;;;;;;;9.38;2.60;;;;;;;22.58;66.81;101951.41;10274045;28;20043;-90
2022/06/12 15:57:31;;;;;;;12.05;2.47;;;;;;;21.56;66.53;101926.75;10303914;28;20106;-90
2022/06/12 16:02:34;;;;;;;6.90;2.10;;;;;;;20.84;67.52;101932.47;10288624;28;20066;-92
2022/06/12 16:07:34;;;;;;;5.20;1.80;;;;;;;22.27;67.65;101913.53;10312019;28;20095;-87
2022/06/12 16:12:35;;;;;;;10.98;3.63;;;;;;;23.13;63.69;101918.59;10303921;28;20039;-91
2022/06/12 16:17:35;;;;;;;8.63;2.10;;;;;;;22.98;64.31;101910.44;10309141;28;20046;-95
2022/06/12 16:22:36;;;;;;;10.70;3.22;;;;;;;23.87;61.57;101911.81;10312481;28;20422;-92
2022/06/12 16:27:38;;;;;;;6.85;2.40;;;;;;;23.59;60.94;101904.63;10285559;28;20035;-92
2022/06/12 16:32:38;;;;;;;8.48;2.10;;;;;;;23.39;62.03;101920.81;10282342;28;20039;-91
2022/06/12 16:37:39;;;;;;;7.82;2.70;;;;;;;22.75;62.20;101893.50;10275664;28;20039;-88
2022/06/12 16:42:39;;;;;;;11.13;2.90;;;;;;;22.24;62.41;101894.53;10238630;28;20044;-90
2022/06/12 16:47:40;;;;;;;7.88;2.90;;;;;;;21.51;63.62;101863.22;10256764;28;20593;-89
2022/06/12 16:52:40;;;;;;;8.52;2.50;;;;;;;21.67;66.65;101933.88;10238914;28;20126;-87
2022/06/12 16:57:41;;;;;;;11.50;3.08;;;;;;;20.81;69.96;101949.84;10292348;28;20039;-87
2022/06/12 17:02:41;;;;;;;10.43;3.45;;;;;;;20.05;72.74;101946.66;10287706;28;20127;-88
2022/06/12 17:07:44;;;;;;;10.85;3.22;;;;;;;19.70;74.06;101954.13;10287441;28;20038;-87
2022/06/12 17:12:44;;;;;;;8.85;2.75;;;;;;;19.67;76.10;101963.13;10288168;28;20046;-90
2022/06/12 17:20:42;;;;;;;11.45;2.78;;;;;;;19.93;75.08;101947.88;10279265;28;20035;-89
2022/06/12 17:23:05;;;;;;;9.52;2.38;;;;;;;19.53;76.15;101969.34;10295066;28;20067;-91
2022/06/12 17:28:06;;;;;;;10.70;3.33;;;;;;;19.18;76.70;101953.59;10297885;28;20045;-89
2022/06/12 17:33:07;;;;;;;9.95;2.60;;;;;;;18.79;78.87;101967.44;10270286;28;20058;-88
2022/06/12 17:38:07;;;;;;;13.65;2.72;;;;;;;18.99;80.23;101981.31;10275013;28;20043;-88
2022/06/12 17:43:08;;;;;;;7.25;2.22;;;;;;;18.92;77.13;101956.50;10283287;28;20460;-88
2022/06/12 17:48:11;;;;;;;10.40;2.72;;;;;;;18.92;76.73;101958.47;10297923;28;20039;-88
2022/06/12 17:53:11;;;;;;;9.52;2.75;;;;;;;18.73;76.57;101953.47;10268465;28;20035;-89
2022/06/12 17:58:12;;;;;;;6.82;3.28;;;;;;;18.49;77.26;101907.78;10279045;28;20031;-88
2022/06/12 18:03:12;;;;;;;5.45;1.92;;;;;;;18.70;74.91;101942.88;10298301;28;20035;-88
2022/06/12 18:08:13;;;;;;;8.90;2.05;;;;;;;18.79;75.97;101950.69;10276683;28;20039;-88
2022/06/12 18:13:13;;;;;;;6.45;2.08;;;;;;;18.52;74.37;101940.69;10298259;28;20125;-89
2022/06/12 18:23:33;;;;;;;7.88;2.65;;;;;;;17.92;78.17;101959.97;10295813;28;20057;-90
2022/06/12 18:28:33;;;;;;;9.50;2.30;;;;;;;17.85;80.43;101965.81;10279099;28;20042;-89
2022/06/12 18:33:34;;;;;;;7.80;2.00;;;;;;;17.66;80.91;101954.34;10277138;28;20051;-89
2022/06/12 18:38:35;;;;;;;9.07;2.35;;;;;;;17.37;81.01;101969.88;10273544;28;20403;-89
2022/06/12 18:43:35;;;;;;;9.48;2.25;;;;;;;17.01;81.65;101973.34;10297585;28;20122;-89
2022/06/12 18:48:36;;;;;;;10.68;2.72;;;;;;;16.87;82.44;101977.72;10298218;28;20034;-79
2022/06/12 18:53:37;;;;;;;8.63;2.25;;;;;;;16.70;82.73;101970.38;10270424;28;20078;-80
2022/06/12 18:58:38;;;;;;;12.15;2.35;;;;;;;16.52;83.84;101971.63;10285302;28;20460;-89
2022/06/12 19:03:39;;;;;;;6.28;2.80;;;;;;;16.35;85.14;101982.09;10301158;28;20070;-88
2022/06/12 19:08:40;;;;;;;11.70;3.97;;;;;;;16.19;93.33;102006.13;10283787;28;20036;-89
2022/06/12 19:13:40;;;;;;;9.82;3.40;;;;;;;16.07;100.00;102003.50;10259274;28;20051;-89
2022/06/12 19:18:41;;;;;;;13.35;3.95;;;;;;;15.97;100.00;101985.91;10261134;28;20059;-88
2022/06/12 19:23:44;;;;;;;12.27;4.00;;;;;;;15.92;100.00;101993.09;10265299;28;20033;-90
2022/06/12 19:28:44;;;;;;;13.57;3.70;;;;;;;15.96;100.00;101996.19;10283945;28;20038;-89
2022/06/12 19:33:45;;;;;;;11.68;3.75;;;;;;;15.96;100.00;101996.19;10295819;28;20031;-91
2022/06/12 19:38:45;;;;;;;15.43;4.20;;;;;;;15.88;100.00;101994.72;10281292;28;20977;-91
2022/06/12 19:43:46;;;;;;;20.00;3.70;;;;;;;15.83;100.00;101980.78;10284409;28;20050;-90
2022/06/12 19:48:46;;;;;;;11.25;3.88;;;;;;;15.82;100.00;101989.41;10270822;28;20043;-91
2022/06/12 19:53:47;;;;;;;12.45;3.80;;;;;;;15.78;100.00;102014.06;10276499;28;20074;-86
2022/06/12 19:58:47;;;;;;;13.27;2.97;;;;;;;15.67;100.00;102026.97;10276683;28;20057;-89
2022/06/12 20:03:48;;;;;;;12.02;3.20;;;;;;;15.58;100.00;102017.41;10296576;28;20035;-90
2022/06/12 20:08:51;;;;;;;12.50;3.40;;;;;;;15.54;100.00;102025.44;10264497;28;20050;-90
2022/06/12 20:13:51;;;;;;;14.13;3.20;;;;;;;15.46;100.00;102012.03;10286386;28;20046;-91
2022/06/12 20:18:52;;;;;;;14.73;3.22;;;;;;;15.13;100.00;101988.88;10291834;28;20042;-90
2022/06/12 20:23:52;;;;;;;12.23;3.70;;;;;;;15.23;100.00;102009.50;10282120;28;20043;-91
2022/06/12 20:28:52;;;;;;;13.57;4.38;;;;;;;15.13;100.00;102015.75;10254206;28;20027;-90
2022/06/12 20:33:53;;;;;;;15.82;4.28;;;;;;;15.01;100.00;102006.75;10273432;28;20047;-91
2022/06/12 20:38:54;;;;;;;14.68;5.88;;;;;;;14.86;100.00;102010.97;10297617;28;20110;-89
2022/06/12 20:43:54;;;;;;;16.10;3.58;;;;;;;14.75;100.00;102013.84;10298071;28;20042;-90
2022/06/12 20:48:54;;;;;;;13.25;3.25;;;;;;;14.64;100.00;102012.84;10316014;28;20034;-87
2022/06/12 20:53:55;;;;;;;10.93;3.00;;;;;;;14.27;100.00;101956.00;10265927;28;20045;-91
2022/06/12 20:58:57;;;;;;;11.45;3.63;;;;;;;14.45;100.00;102006.69;10284063;28;20036;-91
2022/06/12 21:03:58;;;;;;;17.17;4.38;;;;;;;14.27;100.00;102003.09;10296899;28;20118;-89
2022/06/12 21:08:58;;;;;;;16.17;3.70;;;;;;;14.11;100.00;101995.63;10294140;28;20097;-91
2022/06/12 21:13:59;;;;;;;10.40;3.30;;;;;;;13.96;100.00;101990.66;10289857;28;20046;-91
2022/06/12 21:18:59;;;;;;;14.45;3.35;;;;;;;13.73;100.00;101986.94;10289049;28;20046;-90
2022/06/12 21:24:00;;;;;;;9.27;3.42;;;;;;;13.62;100.00;101984.22;10275682;28;20039;-88
2022/06/12 21:29:00;;;;;;;14.73;3.08;;;;;;;13.50;100.00;101982.34;10304676;28;20035;-90
2022/06/12 21:34:01;;;;;;;11.85;3.05;;;;;;;13.37;100.00;101985.38;10284362;28;20054;-89
2022/06/12 21:39:02;;;;;;;12.40;3.42;;;;;;;13.21;100.00;101969.53;10289077;28;20099;-79
2022/06/12 21:44:02;;;;;;;11.60;3.33;;;;;;;13.20;100.00;101965.94;10289698;28;20035;-89
2022/06/12 21:49:03;;;;;;;12.13;4.05;;;;;;;13.20;100.00;101967.88;10296879;28;20027;-90
2022/06/12 21:59:23;;;;;;;12.02;3.45;;;;;;;13.16;100.00;101947.31;10279381;28;20035;-90
2022/06/12 22:04:23;;;;;;;15.18;4.40;;;;;;;13.16;100.00;101958.38;10295596;28;20039;-89
2022/06/12 22:09:24;;;;;;;14.38;3.72;;;;;;;13.06;100.00;101959.00;10259816;28;20035;-87
2022/06/12 22:14:25;;;;;;;12.20;3.47;;;;;;;13.07;100.00;101960.69;10270100;28;20051;-92
2022/06/12 22:19:27;;;;;;;13.95;4.95;;;;;;;13.05;100.00;101958.16;10278894;28;20035;-89
2022/06/12 22:24:27;;;;;;;8.88;4.00;;;;;;;12.99;100.00;101964.69;10294255;28;20038;-89
2022/06/12 22:29:28;;;;;;;11.65;4.47;;;;;;;12.96;100.00;101962.41;10263260;28;20039;-89
2022/06/12 22:34:28;;;;;;;13.98;4.10;;;;;;;12.92;100.00;101955.69;10298021;28;20043;-89
2022/06/12 22:39:29;;;;;;;17.30;3.80;;;;;;;12.83;100.00;101930.34;10299703;28;20045;-90
2022/06/12 22:44:30;;;;;;;11.90;3.85;;;;;;;12.83;100.00;101932.25;10304197;28;20059;-84
2022/06/12 22:49:30;;;;;;;11.63;3.75;;;;;;;12.77;100.00;101924.94;10304376;28;20051;-90
2022/06/12 22:54:31;;;;;;;10.55;3.65;;;;;;;12.85;100.00;101932.84;10286953;28;20578;-88
2022/06/12 22:59:31;;;;;;;14.02;4.65;;;;;;;12.82;100.00;101927.84;10288197;28;20070;-88
2022/06/12 23:04:32;;;;;;;13.18;4.07;;;;;;;12.78;100.00;101934.94;10286781;28;20054;-86
2022/06/12 23:09:32;;;;;;;12.82;3.65;;;;;;;12.74;100.00;101922.69;10297058;28;20067;-89
2022/06/12 23:14:35;;;;;;;11.63;3.70;;;;;;;12.68;100.00;101925.31;10299610;28;20053;-87
2022/06/12 23:19:35;;;;;;;10.70;4.50;;;;;;;12.66;100.00;101930.25;10293000;28;20035;-88
2022/06/12 23:24:36;;;;;;;12.50;4.40;;;;;;;12.66;100.00;101930.25;10295327;28;20035;-87
2022/06/12 23:29:36;;;;;;;19.38;5.50;;;;;;;12.65;100.00;101925.81;10295225;28;20047;-87
2022/06/12 23:34:37;;;;;;;15.77;5.50;;;;;;;12.69;100.00;101921.50;10297242;28;20140;-88
2022/06/12 23:39:37;;;;;;;11.80;4.18;;;;;;;12.76;100.00;101920.53;10286846;28;20095;-88
2022/06/12 23:44:37;;;;;;;17.42;5.45;;;;;;;12.83;100.00;101918.44;10256207;28;20079;-89